Nearby METAR Reports

 

EGNX - East Midlands Airport, United Kingdom
Distance from station: W 5mi, 8km
Updated: 23/04/2024 03:20
Partly cloudy
Partly cloudy
 Wind from NNW
Wind: NNW 7 mph , 11 km/h
Temperature: 6°C
Wind Chill: 4°C
Dew Point: 4°C
Humidity: 87%
Barometer: 1025 hPa
Clouds: Partly cloudy
Visibility: 6 miles , 10 km
Cloud details: Partly cloudy 549 m
2024/04/23 02:20 EGNX 230220Z 34006KT 300V010 9999 SCT018 06/04 Q1025
EGBB - Birmingham Airport, United Kingdom
Distance from station: SW 34mi, 55km
Updated: 23/04/2024 03:20
Mostly cloudy
Mostly cloudy
 Wind from N
Wind: N 7 mph , 11 km/h
Temperature: 7°C
Wind Chill: 5°C
Dew Point: 6°C
Humidity: 93%
Barometer: 1025 hPa
Clouds: Mostly cloudy
Visibility: 6 miles , 10 km
Cloud details: Mostly cloudy 914 m
2024/04/23 02:20 EGBB 230220Z 36006KT 9999 BKN030 07/06 Q1025
 
EGXW - Waddington RAF, United Kingdom
Distance from station: NE 36mi, 57km
Updated: 23/04/2024 03:20
Few Clouds
Few Clouds
 Wind from NNW
Wind: NNW 10 mph , 17 km/h
Temperature: 5°C
Wind Chill: 2°C
Dew Point: 4°C
Humidity: 93%
Barometer: 1024 hPa
Clouds: Few Clouds
Visibility: 6 miles , 10 km
Cloud details: Few Clouds 792 m
2024/04/23 02:20 EGXW 230220Z AUTO 33009KT 9999 FEW026/// 05/04 Q1024
EGXC - Coningsby RAF, United Kingdom
Distance from station: NE 46mi, 74km
Updated: 23/04/2024 03:20
Light drizzle, Mostly cloudy
Light drizzle, Mostly cloudy
 Wind from WSW
Wind: WSW 5 mph , 7 km/h
Temperature: 6°C
Wind Chill: 4°C
Dew Point: 6°C
Humidity: 100%
Barometer: 1024 hPa
Summary: Light Drizzle
Clouds: Mostly cloudy
Visibility: 2 miles , 4 km
Cloud details: Partly cloudy 91 m
Mostly cloudy 183 m
2024/04/23 02:20 EGXC 230220Z 25004KT 4000 -DZ SCT003 BKN006 06/06 Q1024 RMK YLO2
 
EGPB - Sumburgh, United Kingdom
Distance from station: N 491mi, 791km
Updated: 23/04/2024 03:20
Overcast
Overcast
 Wind from N
Wind: N 6 mph , 9 km/h
Temperature: 6°C
Wind Chill: 4°C
Dew Point: 2°C
Humidity: 76%
Barometer: 1027 hPa
Clouds: Overcast
Visibility: 6 miles , 10 km
Cloud details: Overcast 1097 m
2024/04/23 02:20 EGPB 230220Z AUTO 36005KT 9999 OVC036/// 06/02 Q1027
EGPO - Stornoway, United Kingdom
Distance from station: NW 561mi, 903km
Updated: 23/04/2024 03:20
Overcast
Overcast
 Wind from NNW
Wind: NNW 3 mph , 6 km/h
Temperature: 7°C
Dew Point: 2°C
Humidity: 71%
Barometer: 1030 hPa
Clouds: Overcast
Visibility: 6 miles , 10 km
Cloud details: Overcast 671 m
2024/04/23 02:20 EGPO 230220Z AUTO 34003KT 9999 OVC022/// 07/02 Q1030